Time;durP1;ratioP1;P1;durP2;ratioP2;P2;SDS_P1;SDS_P2;PMS_P1;PMS_P2;Temp;Humidity;BMP_temperature;BMP_pressure;BME280_temperature;BME280_humidity;BME280_pressure;Samples;Min_cycle;Max_cycle;Signal;HPM_P1;HPM_P2
2021/10/21 00:00:42;;;;;;;9.43;8.43;;;15.00;99.90;;;;;;5043266;28;20200;-77
2021/10/21 00:03:09;;;;;;;9.35;7.57;;;15.00;99.90;;;;;;5049907;28;20634;-76
2021/10/21 00:05:40;;;;;;;11.52;6.93;;;15.00;99.90;;;;;;5052219;28;20203;-77
2021/10/21 00:08:07;;;;;;;8.02;6.38;;;14.90;99.90;;;;;;5058901;28;20196;-78
2021/10/21 00:10:35;;;;;;;9.00;7.80;;;14.90;99.90;;;;;;5060177;28;20211;-78
2021/10/21 00:13:02;;;;;;;10.15;7.72;;;14.90;99.90;;;;;;5056553;28;20227;-77
2021/10/21 00:15:31;;;;;;;10.25;8.00;;;14.80;99.90;;;;;;5055171;28;20199;-77
2021/10/21 00:17:58;;;;;;;8.68;7.70;;;14.80;99.90;;;;;;5053966;28;20203;-76
2021/10/21 00:20:25;;;;;;;7.70;6.25;;;14.80;99.90;;;;;;5047871;28;20189;-78
2021/10/21 00:22:54;;;;;;;13.32;7.35;;;14.70;99.90;;;;;;5049327;28;20234;-78
2021/10/21 00:25:21;;;;;;;9.23;6.65;;;14.60;99.90;;;;;;5044424;28;20208;-76
2021/10/21 00:27:49;;;;;;;9.10;7.35;;;14.70;99.90;;;;;;5052896;28;20200;-76
2021/10/21 00:30:16;;;;;;;13.52;8.27;;;14.70;99.90;;;;;;5053903;28;20238;-76
2021/10/21 00:32:43;;;;;;;9.45;8.30;;;14.70;99.90;;;;;;5052091;28;20220;-77
2021/10/21 00:35:11;;;;;;;15.20;8.05;;;14.80;99.90;;;;;;5045647;28;20215;-77
2021/10/21 00:37:39;;;;;;;9.73;8.45;;;14.70;99.90;;;;;;5044068;28;20211;-77
2021/10/21 00:40:09;;;;;;;8.82;6.57;;;14.80;99.90;;;;;;5047907;28;20680;-78
2021/10/21 00:42:36;;;;;;;6.90;6.20;;;14.80;99.90;;;;;;5043106;28;20404;-76
2021/10/21 00:45:04;;;;;;;6.93;6.10;;;14.80;99.90;;;;;;5046687;28;20531;-78
2021/10/21 00:47:31;;;;;;;7.13;5.50;;;14.80;99.90;;;;;;5046154;28;20204;-77
2021/10/21 00:49:59;;;;;;;6.35;4.90;;;14.80;99.90;;;;;;5043742;28;20224;-77
2021/10/21 00:52:26;;;;;;;10.68;5.32;;;14.90;99.90;;;;;;5049341;28;20228;-77
2021/10/21 00:54:54;;;;;;;11.55;5.88;;;15.00;99.90;;;;;;5051053;28;20208;-78
2021/10/21 00:57:23;;;;;;;8.40;5.45;;;15.00;99.90;;;;;;5049480;28;20645;-75
2021/10/21 00:59:52;;;;;;;7.57;5.85;;;15.10;99.90;;;;;;5042495;28;20200;-75
2021/10/21 01:02:19;;;;;;;9.38;4.75;;;14.90;99.90;;;;;;5043503;28;20596;-76
2021/10/21 01:04:47;;;;;;;7.10;4.75;;;14.80;99.90;;;;;;5041646;28;20205;-73
2021/10/21 01:07:15;;;;;;;6.93;3.83;;;14.70;99.90;;;;;;5051945;28;20655;-74
2021/10/21 01:09:45;;;;;;;7.90;4.20;;;14.60;99.90;;;;;;5062731;28;20212;-72
2021/10/21 01:12:14;;;;;;;4.65;4.00;;;14.60;99.90;;;;;;5045644;28;20709;-74
2021/10/21 01:14:45;;;;;;;9.02;4.13;;;14.40;99.90;;;;;;5049863;28;20222;-76
2021/10/21 01:17:14;;;;;;;7.85;3.97;;;14.40;99.90;;;;;;5064768;28;20653;-76
2021/10/21 01:19:42;;;;;;;6.38;3.40;;;14.30;99.90;;;;;;5042547;28;20197;-74
2021/10/21 01:22:11;;;;;;;11.13;3.85;;;14.20;99.90;;;;;;5046435;28;20223;-74
2021/10/21 01:24:38;;;;;;;9.38;4.13;;;14.10;99.90;;;;;;5056227;28;20571;-74
2021/10/21 01:27:05;;;;;;;5.85;3.58;;;14.00;99.90;;;;;;5050914;28;20680;-74
2021/10/21 01:29:36;;;;;;;13.82;4.18;;;14.00;99.90;;;;;;5056721;28;20212;-74
2021/10/21 01:32:06;;;;;;;10.52;4.47;;;14.00;99.90;;;;;;5037179;28;20228;-74
2021/10/21 01:34:33;;;;;;;9.57;4.75;;;14.00;99.90;;;;;;5039206;28;20214;-75
2021/10/21 01:37:00;;;;;;;8.82;3.83;;;14.00;99.90;;;;;;5038047;28;20207;-74
2021/10/21 01:39:59;;;;;;;11.82;4.53;;;14.00;99.90;;;;;;5037569;28;20619;-75
2021/10/21 01:42:27;;;;;;;11.20;4.38;;;14.00;99.90;;;;;;5036104;28;20224;-75
2021/10/21 01:44:55;;;;;;;9.60;4.65;;;14.00;99.90;;;;;;5038339;28;20204;-76
2021/10/21 01:47:22;;;;;;;6.68;5.00;;;14.00;99.90;;;;;;5042061;28;20559;-76
2021/10/21 01:49:49;;;;;;;6.35;3.40;;;14.00;99.90;;;;;;5040250;28;20220;-76
2021/10/21 01:52:16;;;;;;;8.68;4.32;;;14.00;99.90;;;;;;5038733;28;20227;-75
2021/10/21 01:54:44;;;;;;;6.68;3.40;;;13.90;99.90;;;;;;5042379;28;20291;-76
2021/10/21 01:57:12;;;;;;;5.90;4.40;;;14.00;99.90;;;;;;5037687;28;20218;-76
2021/10/21 01:59:39;;;;;;;6.90;3.55;;;14.10;99.90;;;;;;5039112;28;20200;-77
2021/10/21 02:02:07;;;;;;;14.05;5.15;;;14.00;99.90;;;;;;5040353;28;20243;-77
2021/10/21 02:04:34;;;;;;;5.13;4.63;;;14.10;99.90;;;;;;5039072;28;20292;-75
2021/10/21 02:07:01;;;;;;;7.15;4.80;;;14.20;99.90;;;;;;5037716;28;20200;-75
2021/10/21 02:09:28;;;;;;;7.30;4.60;;;14.20;99.90;;;;;;5058036;28;20223;-77
2021/10/21 02:11:55;;;;;;;6.57;5.93;;;14.30;99.90;;;;;;5049918;28;20219;-73
2021/10/21 02:14:24;;;;;;;6.63;5.55;;;14.30;99.90;;;;;;5052977;28;20194;-74
2021/10/21 02:16:51;;;;;;;7.13;6.03;;;14.40;99.90;;;;;;5042294;28;20196;-77
2021/10/21 02:19:18;;;;;;;6.90;5.07;;;14.50;99.90;;;;;;5039129;28;20203;-73
2021/10/21 02:21:45;;;;;;;6.60;5.82;;;14.60;99.90;;;;;;5051103;28;20234;-73
2021/10/21 02:24:13;;;;;;;9.75;6.25;;;14.60;99.90;;;;;;5052933;28;20203;-75
2021/10/21 02:26:47;;;;;;;8.65;5.90;;;14.60;99.90;;;;;;5054443;28;20195;-76
2021/10/21 02:29:14;;;;;;;7.22;6.50;;;14.50;99.90;;;;;;5053701;28;20195;-75
2021/10/21 02:31:45;;;;;;;10.75;8.25;;;14.50;99.90;;;;;;5043561;28;20219;-76
2021/10/21 02:34:12;;;;;;;10.85;6.65;;;14.50;99.90;;;;;;5042483;28;20211;-75
2021/10/21 02:36:40;;;;;;;9.13;6.93;;;14.50;99.90;;;;;;5050280;28;20199;-76
2021/10/21 02:39:07;;;;;;;8.82;7.55;;;14.50;99.90;;;;;;5053608;28;20208;-77
2021/10/21 02:41:41;;;;;;;9.65;7.50;;;14.60;99.90;;;;;;5046792;28;20203;-74
2021/10/21 02:44:09;;;;;;;10.32;7.38;;;14.50;99.90;;;;;;5045884;28;20203;-74
2021/10/21 02:46:36;;;;;;;10.55;8.57;;;14.40;99.90;;;;;;5048130;28;20203;-74
2021/10/21 02:49:05;;;;;;;12.18;8.35;;;14.30;99.90;;;;;;5043483;28;20196;-76
2021/10/21 02:51:32;;;;;;;8.30;7.40;;;14.30;99.90;;;;;;5042695;28;20239;-78
2021/10/21 02:53:59;;;;;;;8.10;7.30;;;14.20;99.90;;;;;;5043624;28;20212;-76
2021/10/21 02:56:26;;;;;;;10.13;7.20;;;14.30;99.90;;;;;;5046253;28;20584;-76
2021/10/21 02:58:54;;;;;;;9.15;7.55;;;14.30;99.90;;;;;;5043834;28;20587;-75
2021/10/21 03:01:21;;;;;;;7.38;6.68;;;14.30;99.90;;;;;;5048013;28;20191;-73
2021/10/21 03:03:48;;;;;;;7.57;6.28;;;14.30;99.90;;;;;;5047810;28;20689;-75
2021/10/21 03:06:18;;;;;;;7.57;6.78;;;14.30;99.90;;;;;;5055019;28;20654;-74
2021/10/21 03:08:45;;;;;;;11.18;7.32;;;14.40;99.90;;;;;;5063072;28;20199;-75
2021/10/21 03:11:13;;;;;;;14.13;7.03;;;14.40;99.90;;;;;;5045938;28;20223;-75
2021/10/21 03:13:40;;;;;;;10.63;7.15;;;14.40;99.90;;;;;;5053328;28;20219;-76
2021/10/21 03:16:07;;;;;;;9.57;7.25;;;14.40;99.90;;;;;;5037407;28;20310;-74
2021/10/21 03:18:34;;;;;;;6.88;6.07;;;14.40;99.90;;;;;;5054496;28;20203;-74
2021/10/21 03:21:05;;;;;;;6.32;5.72;;;14.40;99.90;;;;;;5051390;28;20200;-76
2021/10/21 03:23:34;;;;;;;6.40;4.57;;;14.40;99.90;;;;;;5051587;28;20226;-76
2021/10/21 03:26:01;;;;;;;9.30;5.40;;;14.50;99.90;;;;;;5043767;28;20210;-77
2021/10/21 03:28:28;;;;;;;5.68;4.97;;;14.50;99.90;;;;;;5038112;28;20192;-78
2021/10/21 03:31:02;;;;;;;5.20;4.70;;;14.50;99.90;;;;;;5041799;28;20235;-75
2021/10/21 03:33:29;;;;;;;5.00;4.03;;;14.50;99.90;;;;;;5037112;28;20220;-77
2021/10/21 03:35:57;;;;;;;9.73;4.68;;;14.50;99.90;;;;;;5050228;28;20208;-77
2021/10/21 03:38:24;;;;;;;6.00;3.50;;;14.50;99.90;;;;;;5052531;28;20211;-74
2021/10/21 03:40:54;;;;;;;4.80;3.15;;;14.40;99.90;;;;;;5052399;28;20219;-73
2021/10/21 03:43:23;;;;;;;5.40;2.70;;;14.40;99.90;;;;;;5041129;28;20227;-77
2021/10/21 03:45:50;;;;;;;7.07;2.10;;;14.40;99.90;;;;;;5040141;28;20211;-78
2021/10/21 03:48:18;;;;;;;6.35;2.58;;;14.30;99.90;;;;;;5043931;28;20269;-74
2021/10/21 03:50:45;;;;;;;4.50;2.53;;;14.30;99.90;;;;;;5046963;28;20192;-76
2021/10/21 03:53:13;;;;;;;3.15;2.08;;;14.20;99.90;;;;;;5039801;28;20220;-75
2021/10/21 03:55:40;;;;;;;4.40;2.70;;;14.10;99.90;;;;;;5045448;28;20207;-74
2021/10/21 03:58:09;;;;;;;5.38;2.65;;;14.10;99.90;;;;;;5041525;28;20219;-76
2021/10/21 04:00:37;;;;;;;5.28;2.72;;;14.00;99.90;;;;;;5046607;28;20224;-78
2021/10/21 04:03:04;;;;;;;4.10;2.45;;;14.10;99.90;;;;;;5042985;28;20554;-78
2021/10/21 04:05:31;;;;;;;3.10;1.98;;;14.00;99.90;;;;;;5040718;28;20208;-78
2021/10/21 04:07:58;;;;;;;3.85;3.00;;;14.00;99.90;;;;;;5049801;28;20224;-75
2021/10/21 04:10:25;;;;;;;5.15;2.80;;;13.90;99.90;;;;;;5051103;28;20191;-76
2021/10/21 04:12:52;;;;;;;3.05;2.00;;;13.90;99.90;;;;;;5041612;28;20575;-78
2021/10/21 04:15:24;;;;;;;2.42;1.63;;;13.90;99.90;;;;;;5052066;28;20204;-77
2021/10/21 04:17:52;;;;;;;2.85;2.38;;;13.90;99.90;;;;;;5052736;28;20234;-75
2021/10/21 04:20:20;;;;;;;2.45;1.67;;;13.90;99.90;;;;;;5042252;28;20216;-77
2021/10/21 04:22:47;;;;;;;6.97;1.60;;;13.80;99.90;;;;;;5043566;28;20233;-77
2021/10/21 04:25:15;;;;;;;2.47;1.73;;;13.70;99.90;;;;;;5044346;28;20217;-73
2021/10/21 04:27:43;;;;;;;5.45;1.38;;;13.50;99.90;;;;;;5044592;28;20217;-76
2021/10/21 04:30:11;;;;;;;3.20;1.55;;;13.30;99.90;;;;;;5053217;28;20596;-75
2021/10/21 04:32:40;;;;;;;1.98;1.20;;;13.10;99.90;;;;;;5042120;28;20276;-76
2021/10/21 04:35:09;;;;;;;6.07;1.48;;;12.80;99.90;;;;;;5049978;28;20283;-77
2021/10/21 04:37:36;;;;;;;2.67;1.23;;;12.70;99.90;;;;;;5055536;28;20203;-75
2021/10/21 04:40:05;;;;;;;2.20;1.42;;;12.60;99.90;;;;;;5054585;28;20205;-76
2021/10/21 04:42:32;;;;;;;3.15;1.20;;;12.50;99.90;;;;;;5049322;28;20226;-76
2021/10/21 04:44:59;;;;;;;1.40;0.90;;;12.50;99.90;;;;;;5049986;28;20736;-75
2021/10/21 04:47:27;;;;;;;7.97;1.65;;;12.50;99.90;;;;;;5042208;28;20230;-79
2021/10/21 04:49:55;;;;;;;3.38;1.20;;;12.50;99.90;;;;;;5052470;28;20577;-75
2021/10/21 04:52:22;;;;;;;1.67;1.35;;;12.60;99.90;;;;;;5056572;28;20226;-75
2021/10/21 04:54:49;;;;;;;3.17;1.13;;;12.60;99.90;;;;;;5056184;28;20227;-75
2021/10/21 04:57:17;;;;;;;3.75;1.45;;;12.60;99.90;;;;;;5040027;28;20219;-79
2021/10/21 04:59:44;;;;;;;4.68;1.23;;;12.70;99.90;;;;;;5049063;28;20224;-78
2021/10/21 05:02:11;;;;;;;3.80;1.40;;;12.70;99.90;;;;;;5046016;28;20226;-78
2021/10/21 05:04:38;;;;;;;6.53;2.10;;;12.70;99.90;;;;;;5052699;28;20198;-75
2021/10/21 05:07:07;;;;;;;3.42;1.23;;;12.70;99.90;;;;;;5051333;28;20209;-76
2021/10/21 05:09:34;;;;;;;3.67;1.27;;;12.80;99.90;;;;;;5049309;28;20204;-77
2021/10/21 05:12:01;;;;;;;1.92;1.05;;;12.80;99.90;;;;;;5044180;28;20229;-77
2021/10/21 05:14:29;;;;;;;1.40;1.13;;;12.80;99.90;;;;;;5040515;28;20204;-76
2021/10/21 05:16:57;;;;;;;2.40;1.50;;;12.80;99.90;;;;;;5051225;28;20205;-76
2021/10/21 05:19:25;;;;;;;5.65;1.80;;;12.90;99.90;;;;;;5049543;28;20212;-78
2021/10/21 05:21:52;;;;;;;3.33;1.40;;;12.80;99.90;;;;;;5041222;28;20242;-76
2021/10/21 05:24:21;;;;;;;2.13;0.90;;;12.80;99.90;;;;;;5049274;28;20310;-75
2021/10/21 05:26:48;;;;;;;6.35;1.20;;;12.90;99.90;;;;;;5044010;28;20207;-78
2021/10/21 05:29:15;;;;;;;3.17;1.17;;;12.90;99.90;;;;;;5050252;28;20203;-75
2021/10/21 05:31:43;;;;;;;6.10;1.23;;;12.90;99.90;;;;;;5054812;28;20681;-77
2021/10/21 05:34:10;;;;;;;2.83;1.40;;;12.90;99.90;;;;;;5045401;28;20577;-79
2021/10/21 05:36:37;;;;;;;3.08;1.40;;;12.80;99.90;;;;;;5047977;28;20207;-77
2021/10/21 05:39:04;;;;;;;3.63;1.95;;;12.70;99.90;;;;;;5037910;28;20684;-74
2021/10/21 05:41:33;;;;;;;3.50;0.90;;;12.70;99.90;;;;;;5049715;28;21007;-75
2021/10/21 05:44:03;;;;;;;2.17;1.23;;;12.60;99.90;;;;;;5036877;28;20249;-77
2021/10/21 05:46:31;;;;;;;6.53;1.40;;;12.50;99.90;;;;;;5047513;28;20203;-76
2021/10/21 05:48:58;;;;;;;3.22;1.35;;;12.50;99.90;;;;;;5052737;28;20533;-74
2021/10/21 05:51:25;;;;;;;2.55;1.08;;;12.40;99.90;;;;;;5042226;28;20211;-74
2021/10/21 05:53:54;;;;;;;3.92;1.73;;;12.40;99.90;;;;;;5047268;28;20213;-74
2021/10/21 05:56:22;;;;;;;2.50;1.10;;;12.30;99.90;;;;;;5048194;28;20618;-75
2021/10/21 05:58:50;;;;;;;3.28;1.10;;;12.30;99.90;;;;;;5048676;28;20688;-76
2021/10/21 06:01:17;;;;;;;3.05;1.13;;;12.10;99.90;;;;;;5040710;28;20687;-74
2021/10/21 06:03:45;;;;;;;8.90;1.60;;;12.10;99.90;;;;;;5042042;28;20193;-77
2021/10/21 06:06:12;;;;;;;6.30;1.15;;;12.00;99.90;;;;;;5048747;28;20224;-76
2021/10/21 06:08:40;;;;;;;3.75;1.33;;;12.00;99.90;;;;;;5044991;28;20213;-75
2021/10/21 06:11:08;;;;;;;3.47;1.30;;;12.00;99.90;;;;;;5041475;28;20665;-76
2021/10/21 06:13:36;;;;;;;2.15;1.55;;;11.90;99.90;;;;;;5044468;28;20222;-74
2021/10/21 06:16:07;;;;;;;2.47;1.10;;;11.90;99.90;;;;;;5038658;28;20546;-74
2021/10/21 06:18:35;;;;;;;3.47;1.63;;;11.80;99.90;;;;;;5039872;28;20243;-74
2021/10/21 06:21:05;;;;;;;4.60;2.75;;;11.80;99.90;;;;;;5040908;28;20225;-76
2021/10/21 06:23:33;;;;;;;2.35;1.20;;;11.80;99.90;;;;;;5036034;28;20231;-75
2021/10/21 06:26:00;;;;;;;2.45;1.20;;;11.80;99.90;;;;;;5040050;28;20574;-75
2021/10/21 06:28:27;;;;;;;2.85;1.40;;;11.70;99.90;;;;;;5043764;28;20213;-76
2021/10/21 06:30:55;;;;;;;4.13;1.52;;;11.80;99.90;;;;;;5039512;28;20197;-73
2021/10/21 06:33:24;;;;;;;3.67;1.45;;;11.70;99.90;;;;;;5042629;28;20236;-74
2021/10/21 06:35:51;;;;;;;2.72;1.52;;;11.70;99.90;;;;;;5046788;28;20231;-76
2021/10/21 06:38:19;;;;;;;4.15;1.70;;;11.70;99.90;;;;;;5039779;28;20228;-75
2021/10/21 06:40:46;;;;;;;1.65;1.10;;;11.70;99.90;;;;;;5042851;28;20598;-77
2021/10/21 06:43:14;;;;;;;1.50;0.90;;;11.70;99.90;;;;;;5048229;28;20247;-75
2021/10/21 06:45:41;;;;;;;1.83;0.88;;;11.60;99.90;;;;;;5052927;28;20195;-78
2021/10/21 06:48:09;;;;;;;5.00;1.30;;;11.50;99.90;;;;;;5050705;28;20192;-74
2021/10/21 06:50:38;;;;;;;4.38;0.93;;;11.30;99.90;;;;;;5042776;28;20200;-76
2021/10/21 06:53:06;;;;;;;1.60;1.05;;;11.30;99.90;;;;;;5052644;28;20321;-75
2021/10/21 06:55:33;;;;;;;0.80;0.60;;;11.20;99.90;;;;;;5060348;28;20627;-76
2021/10/21 06:58:00;;;;;;;6.38;0.80;;;11.10;99.90;;;;;;5042943;28;20225;-76
2021/10/21 07:00:28;;;;;;;1.98;0.90;;;11.10;99.90;;;;;;5058165;28;20203;-77
2021/10/21 07:02:57;;;;;;;2.75;0.70;;;11.00;99.90;;;;;;5050774;28;20237;-76
2021/10/21 07:05:26;;;;;;;3.28;1.48;;;11.10;99.90;;;;;;5051060;28;20199;-76
2021/10/21 07:07:55;;;;;;;1.88;1.02;;;11.10;99.90;;;;;;5049237;28;20632;-78
2021/10/21 07:10:22;;;;;;;0.88;0.80;;;11.10;99.90;;;;;;5051551;28;20201;-75
2021/10/21 07:12:50;;;;;;;1.58;0.60;;;11.10;99.90;;;;;;5043437;28;20223;-77
2021/10/21 07:15:18;;;;;;;2.35;0.88;;;11.00;99.90;;;;;;5046807;28;20208;-76
2021/10/21 07:17:45;;;;;;;2.55;0.75;;;11.10;99.90;;;;;;5050995;28;20308;-78
2021/10/21 07:20:14;;;;;;;4.13;0.70;;;11.10;99.90;;;;;;5044061;28;20223;-79
2021/10/21 07:22:42;;;;;;;1.20;0.70;;;11.20;99.90;;;;;;5049986;28;20237;-76
2021/10/21 07:25:10;;;;;;;1.05;0.90;;;11.20;99.90;;;;;;5039788;28;20232;-75
2021/10/21 07:27:40;;;;;;;5.82;0.80;;;11.20;99.90;;;;;;5048541;28;20265;-72
2021/10/21 07:30:07;;;;;;;2.88;0.73;;;11.30;99.90;;;;;;5046755;28;20204;-75
2021/10/21 07:32:34;;;;;;;2.20;1.50;;;11.40;99.90;;;;;;5052564;28;20561;-75
2021/10/21 07:35:02;;;;;;;2.10;1.02;;;11.40;99.90;;;;;;5043165;28;20537;-73
2021/10/21 07:37:29;;;;;;;4.47;1.00;;;11.40;99.90;;;;;;5047536;28;20378;-76
2021/10/21 07:39:56;;;;;;;2.05;0.80;;;11.50;99.90;;;;;;5041487;28;20544;-75
2021/10/21 07:42:25;;;;;;;3.65;0.70;;;11.50;99.90;;;;;;5052090;28;20594;-74
2021/10/21 07:44:52;;;;;;;2.17;1.73;;;11.50;99.90;;;;;;5043866;28;20204;-76
2021/10/21 07:47:20;;;;;;;3.08;0.95;;;11.50;99.90;;;;;;5041165;28;20682;-78
2021/10/21 07:49:47;;;;;;;1.30;0.80;;;11.50;99.90;;;;;;5041401;28;20225;-75
2021/10/21 07:52:17;;;;;;;5.65;1.17;;;11.50;99.90;;;;;;5044969;28;20219;-76
2021/10/21 07:54:44;;;;;;;2.85;1.40;;;11.50;99.90;;;;;;5044843;28;20258;-74
2021/10/21 07:57:13;;;;;;;1.55;0.88;;;11.50;99.90;;;;;;5049866;28;20215;-74
2021/10/21 07:59:42;;;;;;;1.38;0.80;;;11.50;99.90;;;;;;5049625;28;20206;-75
2021/10/21 08:02:10;;;;;;;3.55;1.10;;;11.40;99.90;;;;;;5047036;28;20225;-74
2021/10/21 08:04:37;;;;;;;1.77;0.85;;;11.30;99.90;;;;;;5045961;28;20203;-74
2021/10/21 08:07:05;;;;;;;2.28;0.85;;;11.50;99.90;;;;;;5045263;28;20200;-75
2021/10/21 08:09:33;;;;;;;2.40;1.00;;;11.50;99.90;;;;;;5049183;28;20227;-75
2021/10/21 08:12:03;;;;;;;8.27;1.40;;;11.50;99.90;;;;;;5049235;28;20703;-75
2021/10/21 08:14:30;;;;;;;1.27;0.90;;;11.40;99.90;;;;;;5056047;28;20272;-77
2021/10/21 08:16:59;;;;;;;3.80;1.25;;;11.40;99.90;;;;;;5051235;28;20205;-76
2021/10/21 08:19:27;;;;;;;4.63;0.88;;;11.40;99.90;;;;;;5048395;28;20223;-77
2021/10/21 08:21:55;;;;;;;4.47;1.02;;;11.30;99.90;;;;;;5044714;28;20241;-77
2021/10/21 08:24:23;;;;;;;1.67;0.85;;;11.30;99.90;;;;;;5046156;28;20208;-75
2021/10/21 08:26:50;;;;;;;2.35;0.80;;;11.30;99.90;;;;;;5053546;28;20224;-77
2021/10/21 08:29:18;;;;;;;2.55;1.05;;;11.30;99.90;;;;;;5049256;28;20208;-77
2021/10/21 08:31:46;;;;;;;6.40;1.23;;;11.20;99.90;;;;;;5049704;28;20220;-76
2021/10/21 08:34:15;;;;;;;1.95;0.93;;;11.40;99.90;;;;;;5049433;28;20612;-75
2021/10/21 08:36:45;;;;;;;2.42;0.90;;;11.40;99.90;;;;;;5051471;28;20211;-76
2021/10/21 08:39:12;;;;;;;3.85;1.15;;;11.40;99.90;;;;;;5051001;28;20225;-76
2021/10/21 08:41:42;;;;;;;4.20;1.10;;;11.50;99.90;;;;;;5041689;28;20240;-77
2021/10/21 08:44:09;;;;;;;3.78;1.17;;;11.50;99.90;;;;;;5046931;28;20204;-76
2021/10/21 08:46:38;;;;;;;5.25;1.20;;;11.50;99.90;;;;;;5056343;28;20215;-76
2021/10/21 08:49:05;;;;;;;3.63;1.27;;;11.60;99.90;;;;;;5047568;28;20258;-76
2021/10/21 08:51:35;;;;;;;4.53;1.38;;;11.60;99.90;;;;;;5042027;28;20206;-76
2021/10/21 08:54:04;;;;;;;5.07;1.38;;;11.70;99.90;;;;;;5043924;28;20212;-76
2021/10/21 08:56:32;;;;;;;5.85;1.70;;;11.70;99.90;;;;;;5045544;28;20204;-76
2021/10/21 08:59:01;;;;;;;9.23;2.13;;;11.70;99.90;;;;;;5056715;28;20208;-77
2021/10/21 09:01:38;;;;;;;3.25;1.25;;;11.70;99.90;;;;;;5048295;28;20207;-76
2021/10/21 09:04:16;;;;;;;8.38;1.30;;;11.90;99.90;;;;;;5050048;28;20255;-77
2021/10/21 09:09:33;;;;;;;5.40;1.48;;;12.10;99.90;;;;;;5039760;28;20287;-79
2021/10/21 09:12:05;;;;;;;6.88;1.50;;;12.30;99.90;;;;;;5047622;28;20222;-79
2021/10/21 09:14:34;;;;;;;2.88;1.23;;;12.50;99.90;;;;;;5051334;28;20242;-78
2021/10/21 09:17:02;;;;;;;5.70;1.80;;;12.40;99.90;;;;;;5046099;28;20282;-76
2021/10/21 09:19:30;;;;;;;6.82;1.70;;;12.30;99.90;;;;;;5049339;28;20208;-76
2021/10/21 09:22:00;;;;;;;2.35;2.08;;;12.30;99.90;;;;;;5048859;28;20229;-76
2021/10/21 09:24:29;;;;;;;6.97;1.50;;;12.30;99.90;;;;;;5048383;28;20204;-75
2021/10/21 09:27:10;;;;;;;8.63;1.95;;;12.20;99.90;;;;;;5048773;28;20210;-77
2021/10/21 09:29:39;;;;;;;5.20;1.30;;;12.10;99.90;;;;;;5052332;28;20200;-75
2021/10/21 09:32:08;;;;;;;7.50;2.10;;;11.80;99.90;;;;;;5040351;28;20229;-75
2021/10/21 09:34:48;;;;;;;5.22;1.75;;;11.80;99.90;;;;;;5043096;28;20226;-77
2021/10/21 09:37:18;;;;;;;8.90;1.88;;;11.80;99.90;;;;;;5049021;28;20282;-75
2021/10/21 09:39:49;;;;;;;5.50;1.88;;;11.80;99.90;;;;;;5039312;28;20239;-77
2021/10/21 09:42:24;;;;;;;4.10;1.60;;;12.00;99.90;;;;;;5047634;28;20226;-77
2021/10/21 09:45:09;;;;;;;4.82;2.22;;;12.30;99.90;;;;;;5045965;28;20344;-76
2021/10/21 09:47:38;;;;;;;6.18;1.10;;;12.70;99.90;;;;;;5045551;28;20207;-78
2021/10/21 09:50:21;;;;;;;2.75;1.15;;;12.90;99.90;;;;;;5046237;28;20288;-77
2021/10/21 09:53:09;;;;;;;3.28;1.55;;;12.60;99.90;;;;;;5032494;28;20237;-77
2021/10/21 09:55:37;;;;;;;6.55;1.30;;;12.60;99.90;;;;;;5045875;28;20206;-77
2021/10/21 09:58:06;;;;;;;2.75;1.30;;;12.60;99.90;;;;;;5043165;28;20301;-76
2021/10/21 10:00:35;;;;;;;2.85;1.40;;;12.60;99.90;;;;;;5045622;28;20211;-75
2021/10/21 10:03:13;;;;;;;5.05;1.60;;;12.50;99.90;;;;;;5044294;28;20235;-75
2021/10/21 10:05:45;;;;;;;4.05;1.75;;;12.50;99.90;;;;;;5052524;28;20208;-74
2021/10/21 10:08:14;;;;;;;5.45;1.40;;;12.60;99.90;;;;;;5039809;28;20638;-75
2021/10/21 10:10:43;;;;;;;2.45;1.35;;;12.50;99.90;;;;;;5053867;28;20279;-75
2021/10/21 10:13:12;;;;;;;4.03;1.00;;;12.50;99.90;;;;;;5048502;28;20224;-76
2021/10/21 10:15:43;;;;;;;3.80;0.90;;;12.50;99.90;;;;;;5052667;28;20687;-76
2021/10/21 10:18:15;;;;;;;2.65;1.10;;;12.50;99.90;;;;;;5054184;28;20200;-74
2021/10/21 10:20:45;;;;;;;3.33;0.85;;;12.60;99.90;;;;;;5043447;28;20217;-75
2021/10/21 10:23:15;;;;;;;2.10;1.30;;;12.60;99.90;;;;;;5040148;28;20319;-80
2021/10/21 10:25:48;;;;;;;8.88;1.08;;;12.60;99.90;;;;;;5054962;28;20198;-75
2021/10/21 10:28:15;;;;;;;3.85;1.00;;;12.60;99.90;;;;;;5052976;28;20264;-75
2021/10/21 10:30:51;;;;;;;2.50;1.02;;;12.60;99.90;;;;;;5055657;28;20213;-77
2021/10/21 10:33:38;;;;;;;1.80;0.80;;;12.50;99.90;;;;;;5045038;28;20764;-77
2021/10/21 10:36:29;;;;;;;11.40;2.70;;;12.60;99.90;;;;;;5051890;28;20632;-75
2021/10/21 10:38:59;;;;;;;6.55;1.50;;;12.50;99.90;;;;;;5045399;28;20212;-74
2021/10/21 10:41:48;;;;;;;3.35;1.30;;;12.50;99.90;;;;;;5053255;28;20203;-75
2021/10/21 10:44:48;;;;;;;2.65;1.10;;;12.60;99.90;;;;;;5037785;28;20252;-76
2021/10/21 10:47:16;;;;;;;6.95;1.65;;;12.60;99.90;;;;;;5037844;28;20202;-74
2021/10/21 10:49:49;;;;;;;3.72;1.35;;;12.90;99.90;;;;;;5043418;28;20207;-77
2021/10/21 10:52:17;;;;;;;3.75;1.30;;;13.20;99.90;;;;;;5046090;28;20227;-77
2021/10/21 10:55:03;;;;;;;3.55;2.38;;;13.40;99.90;;;;;;5056487;28;20200;-78
2021/10/21 10:57:53;;;;;;;6.95;1.92;;;13.30;99.90;;;;;;5037689;28;20215;-77
2021/10/21 11:00:39;;;;;;;7.55;1.58;;;13.20;99.90;;;;;;5039540;28;20202;-78
2021/10/21 11:03:08;;;;;;;2.50;1.15;;;12.80;99.90;;;;;;5045335;28;20681;-77
2021/10/21 11:05:56;;;;;;;5.35;1.40;;;12.50;99.90;;;;;;5049465;28;20212;-75
2021/10/21 11:08:50;;;;;;;2.13;1.25;;;12.30;99.90;;;;;;5046364;28;20207;-75
2021/10/21 11:12:00;;;;;;;5.70;1.42;;;12.10;99.90;;;;;;5045825;28;20201;-77
2021/10/21 11:14:38;;;;;;;2.10;0.93;;;12.10;99.90;;;;;;5045994;28;20282;-74
2021/10/21 11:17:06;;;;;;;3.00;1.90;;;11.80;99.90;;;;;;5031307;28;20197;-75
2021/10/21 11:19:52;;;;;;;2.30;0.88;;;11.70;99.90;;;;;;5041876;28;20200;-75
2021/10/21 11:22:41;;;;;;;1.70;1.58;;;11.60;99.90;;;;;;5047549;28;20230;-75
2021/10/21 11:25:10;;;;;;;2.75;1.42;;;11.70;99.90;;;;;;5039704;28;20225;-75
2021/10/21 11:27:41;;;;;;;4.32;1.50;;;11.80;99.90;;;;;;5039143;28;20247;-76
2021/10/21 11:30:20;;;;;;;2.67;1.00;;;11.90;99.90;;;;;;5040012;28;20206;-76
2021/10/21 11:32:48;;;;;;;3.83;1.85;;;12.00;99.90;;;;;;5036062;28;20276;-76
2021/10/21 11:35:18;;;;;;;5.25;1.13;;;12.20;99.90;;;;;;5044313;28;20213;-76
2021/10/21 11:37:48;;;;;;;6.30;1.30;;;12.50;99.90;;;;;;5043296;28;20202;-76
2021/10/21 11:40:25;;;;;;;7.30;1.63;;;12.60;99.90;;;;;;5050002;28;20564;-77
2021/10/21 11:42:56;;;;;;;4.90;1.00;;;12.70;99.90;;;;;;5044451;28;20234;-76
2021/10/21 11:45:30;;;;;;;5.85;1.90;;;12.60;99.90;;;;;;5044117;28;20286;-77
2021/10/21 11:47:59;;;;;;;2.65;1.40;;;12.60;99.90;;;;;;5046660;28;20201;-77
2021/10/21 11:50:40;;;;;;;3.33;1.15;;;12.50;99.90;;;;;;5049515;28;20248;-76
2021/10/21 11:53:11;;;;;;;7.47;1.20;;;12.50;99.90;;;;;;5044327;28;20305;-76
2021/10/21 11:55:38;;;;;;;7.32;2.15;;;12.40;99.90;;;;;;5046680;28;20224;-76
2021/10/21 11:58:12;;;;;;;12.15;2.00;;;12.20;99.90;;;;;;5042670;28;20220;-75
2021/10/21 12:00:41;;;;;;;3.25;2.28;;;12.00;99.90;;;;;;5048706;28;20208;-75
2021/10/21 12:03:08;;;;;;;3.47;1.98;;;11.70;99.90;;;;;;5042580;28;20583;-74
2021/10/21 12:05:39;;;;;;;12.43;2.65;;;11.50;99.90;;;;;;5051363;28;20207;-73
2021/10/21 12:08:07;;;;;;;9.75;1.55;;;11.20;99.90;;;;;;5043775;28;20597;-74
2021/10/21 12:10:36;;;;;;;3.90;1.55;;;10.90;99.90;;;;;;5046150;28;20204;-74
2021/10/21 12:13:05;;;;;;;2.10;1.20;;;10.70;99.90;;;;;;5055110;28;20231;-74
2021/10/21 12:15:36;;;;;;;5.35;1.30;;;10.40;99.90;;;;;;5052708;28;20291;-75
2021/10/21 12:18:10;;;;;;;6.43;1.25;;;10.30;99.90;;;;;;5044560;28;20638;-74
2021/10/21 12:20:41;;;;;;;5.72;1.90;;;10.10;99.90;;;;;;5043315;28;20230;-73
2021/10/21 12:23:18;;;;;;;2.03;0.77;;;10.00;99.90;;;;;;5040364;28;20232;-75
2021/10/21 12:25:49;;;;;;;2.70;0.88;;;9.80;99.90;;;;;;5042651;28;20205;-74
2021/10/21 12:28:16;;;;;;;4.38;1.20;;;9.70;99.90;;;;;;5047446;28;20341;-73
2021/10/21 12:30:46;;;;;;;2.92;1.77;;;9.50;99.90;;;;;;5049428;28;20298;-76
2021/10/21 12:33:14;;;;;;;2.47;0.90;;;9.40;99.90;;;;;;5050790;28;20223;-76
2021/10/21 12:36:00;;;;;;;2.22;1.20;;;9.40;99.90;;;;;;5054258;28;20202;-75
2021/10/21 12:38:31;;;;;;;2.75;0.90;;;9.40;99.90;;;;;;5044068;28;20249;-74
2021/10/21 12:41:00;;;;;;;1.98;1.45;;;9.40;99.90;;;;;;5055736;28;20207;-75
2021/10/21 12:43:27;;;;;;;5.72;1.40;;;9.40;99.90;;;;;;5043424;28;20232;-76
2021/10/21 12:46:00;;;;;;;2.75;1.15;;;9.50;99.90;;;;;;5038787;28;20556;-75
2021/10/21 12:48:29;;;;;;;5.30;1.58;;;9.60;99.90;;;;;;5048733;28;20253;-76
2021/10/21 12:51:14;;;;;;;4.97;1.42;;;9.80;99.90;;;;;;5046971;28;20542;-75
2021/10/21 12:53:52;;;;;;;2.78;1.15;;;9.90;99.90;;;;;;5047693;28;20590;-74
2021/10/21 12:56:22;;;;;;;4.28;1.35;;;10.10;99.90;;;;;;5047884;28;20212;-76
2021/10/21 12:59:02;;;;;;;3.63;1.00;;;10.20;99.90;;;;;;5046808;28;20540;-77
2021/10/21 13:01:54;;;;;;;2.00;1.20;;;10.20;99.90;;;;;;5027896;28;20254;-76